DIRECCIÓN GENERAL DE AERONÁUTICA CIVIL
DIRECCIÓN METEOROLÓGICA DE CHILE
INFORMACIÓN METAR Y TAF

FIR SANTIAGO

Estación: SCSE
METAR SCSE 272200Z 30011KT 9999 FEW015 SCT250 15/11 Q1015=

TAF SCSE 272230Z 2800/2824 30010KT 9999 SCT015 SCT250 TX19/2818Z TN11/2810Z BECMG 2804/2806 33005KT BKN010 BECMG 2805/2807 VRB02KT BECMG 2814/2816 30010KT SCT020=

Estación: SCER
NIL=

NIL=

Estación: SCRD
METAR SCRD 272200Z 18005KT 9999 SCT050 BKN110 15/10 Q1016=

TAF SCRD 271018Z 2712/2724 33005KT 3000 BR OVC005 TX22/2719Z TN13/ 2712Z TEMPO 2712/2714 0500 FG OVC002 BECMG 2715/2717 34010KT 8000 SCT015 BECMG 2718/2720 CAVOK=

Estación: SCVM
METAR SCVM 272200Z 33006KT CAVOK 17/11 Q1016=

TAF SCVM 272230Z 2800/2824 34005KT CAVOK TX20/2819Z TN10/2810Z BECMG 2802/2804 VRB02KT BKN010 BKN200 BECMG 2814/2816 30010KT SCT020 BKN180=

Estación: SCTB
METAR SCTB 272200Z 23004KT 9999 BKN180 23/12 Q1015=

TAF SCTB 271019Z 2712/2724 VRB02KT CAVOK TX29/2718Z TN13/2712Z BECMG 2715/2717 21005KT=

Estación: SCEL
METAR SCEL 272200Z 20009KT CAVOK 24/07 Q1015 NOSIG=

TAF SCEL 272230Z 2800/2824 18010KT CAVOK TX25/2819Z TN12/2810Z TEMPO 2805/2812 VRB02KT BECMG 2814/2816 18010KT BECMG 2818/2820 SCT160 BKN200=

Estación: SCSN
METAR SCSN 272200Z 33006KT 9999 FEW010 BKN250 14/10 Q1016=

TAF SCSN 271018Z 2712/2724 VRB02KT 8000 OVC007 TX16/2718Z TN12/2712Z BECMG 2716/2718 33010KT 9999 SCT015=

Estación: SCRG
METAR SCRG 272000Z 15014KT CAVOK 25/13 Q1015=

TAF SCRG 271019Z 2712/2724 18005KT CAVOK TX26/2718Z TN12/2712Z BECMG 2715/2717 19012KT=

Estación: SCIC
METAR SCIC 272200Z 26010KT CAVOK 22/12 Q1014=

TAF SCIC 271020Z 2712/2724 20004KT CAVOK TX26/2718Z TN14/2712Z BECMG 2715/2717 21010KT=

Estación: SCCH
METAR SCCH 272200Z 00000KT 9999 FEW040 BKN100 19/10 Q1016=

TAF SCCH 271020Z 2712/2724 20005KT CAVOK TX25/2719Z TN11/2712Z BECMG 2715/2717 21012KT 9999 SCT030 BKN100=

Estación: SCIE
METAR SCIE 272200Z 24011KT 9999 SCT030 BKN150 15/09 Q1018=

TAF SCIE 272230Z 2800/2824 22005KT 9999 SCT025 BKN150 TX16/2818Z TN09/2810Z BECMG 2803/2805 24005KT BECMG 2804/2806 SCT010 BKN100 BECMG 2814/2816 29010KT BKN020 BKN100=

Estación: SCGE
METAR SCGE 272100Z 19006KT 9999 BKN033 OVC066 18/12 Q1017=

TAF SCGE 271020Z 2712/2724 19005KT CAVOK TX24/2719Z TN11/2712Z BECMG 2714/2716 20012KT 9999 SCT020 BKN100=


Volver